sensor_id;sensor_type;location;lat;lon;timestamp;pressure;altitude;pressure_sealevel;temperature;humidity
45621;BME280;31345;51.522;10.702;2023-02-19T00:02:01;99041.13;;;8.43;100.00
45621;BME280;31345;51.522;10.702;2023-02-19T00:04:34;99049.69;;;8.45;100.00
45621;BME280;31345;51.522;10.702;2023-02-19T00:07:01;99038.06;;;8.51;100.00
45621;BME280;31345;51.522;10.702;2023-02-19T00:09:34;99047.31;;;8.56;100.00
45621;BME280;31345;51.522;10.702;2023-02-19T00:12:06;99036.13;;;8.54;100.00
45621;BME280;31345;51.522;10.702;2023-02-19T00:14:40;99037.97;;;8.52;100.00
45621;BME280;31345;51.522;10.702;2023-02-19T00:17:13;99032.47;;;8.42;100.00
45621;BME280;31345;51.522;10.702;2023-02-19T00:19:41;99024.75;;;8.41;100.00
45621;BME280;31345;51.522;10.702;2023-02-19T00:22:13;99010.88;;;8.40;100.00
45621;BME280;31345;51.522;10.702;2023-02-19T00:24:46;99005.00;;;8.37;100.00
45621;BME280;31345;51.522;10.702;2023-02-19T00:27:14;98996.34;;;8.36;100.00
45621;BME280;31345;51.522;10.702;2023-02-19T00:29:48;98992.53;;;8.42;100.00
45621;BME280;31345;51.522;10.702;2023-02-19T00:32:17;98991.81;;;8.40;100.00
45621;BME280;31345;51.522;10.702;2023-02-19T00:34:50;98986.22;;;8.46;100.00
45621;BME280;31345;51.522;10.702;2023-02-19T00:37:22;98975.72;;;8.47;100.00
45621;BME280;31345;51.522;10.702;2023-02-19T00:39:50;98965.38;;;8.46;100.00
45621;BME280;31345;51.522;10.702;2023-02-19T00:42:22;98954.56;;;8.38;100.00
45621;BME280;31345;51.522;10.702;2023-02-19T00:44:57;98964.25;;;8.36;100.00
45621;BME280;31345;51.522;10.702;2023-02-19T00:47:24;98963.69;;;8.45;100.00
45621;BME280;31345;51.522;10.702;2023-02-19T00:49:52;98961.00;;;8.46;100.00
45621;BME280;31345;51.522;10.702;2023-02-19T00:52:20;98957.38;;;8.49;100.00
45621;BME280;31345;51.522;10.702;2023-02-19T00:54:52;98958.84;;;8.39;100.00
45621;BME280;31345;51.522;10.702;2023-02-19T00:57:20;98965.28;;;8.47;100.00
45621;BME280;31345;51.522;10.702;2023-02-19T00:59:52;98959.13;;;8.49;100.00
45621;BME280;31345;51.522;10.702;2023-02-19T01:02:26;98954.59;;;8.52;100.00
45621;BME280;31345;51.522;10.702;2023-02-19T01:05:00;98945.66;;;8.42;100.00
45621;BME280;31345;51.522;10.702;2023-02-19T01:07:34;98939.69;;;8.40;100.00
45621;BME280;31345;51.522;10.702;2023-02-19T01:10:07;98932.78;;;8.39;100.00
45621;BME280;31345;51.522;10.702;2023-02-19T01:12:35;98921.38;;;8.41;100.00
45621;BME280;31345;51.522;10.702;2023-02-19T01:15:08;98913.56;;;8.41;100.00
45621;BME280;31345;51.522;10.702;2023-02-19T01:17:42;98911.13;;;8.38;100.00
45621;BME280;31345;51.522;10.702;2023-02-19T01:20:10;98905.75;;;8.41;100.00
45621;BME280;31345;51.522;10.702;2023-02-19T01:22:38;98902.03;;;8.45;100.00
45621;BME280;31345;51.522;10.702;2023-02-19T01:25:06;98897.16;;;8.39;100.00
45621;BME280;31345;51.522;10.702;2023-02-19T01:27:39;98894.66;;;8.38;100.00
45621;BME280;31345;51.522;10.702;2023-02-19T01:30:12;98894.75;;;8.36;100.00
45621;BME280;31345;51.522;10.702;2023-02-19T01:32:46;98897.25;;;8.38;100.00
45621;BME280;31345;51.522;10.702;2023-02-19T01:35:18;98900.16;;;8.47;100.00
45621;BME280;31345;51.522;10.702;2023-02-19T01:37:51;98899.94;;;8.36;100.00
45621;BME280;31345;51.522;10.702;2023-02-19T01:40:20;98893.00;;;8.37;100.00
45621;BME280;31345;51.522;10.702;2023-02-19T01:42:48;98890.00;;;8.28;100.00
45621;BME280;31345;51.522;10.702;2023-02-19T01:45:24;98879.59;;;8.43;100.00
45621;BME280;31345;51.522;10.702;2023-02-19T01:48:02;98885.09;;;8.38;100.00
45621;BME280;31345;51.522;10.702;2023-02-19T01:50:36;98873.91;;;8.36;100.00
45621;BME280;31345;51.522;10.702;2023-02-19T01:53:06;98879.03;;;8.38;100.00
45621;BME280;31345;51.522;10.702;2023-02-19T01:55:43;98862.94;;;8.31;100.00
45621;BME280;31345;51.522;10.702;2023-02-19T01:58:18;98856.97;;;8.29;100.00
45621;BME280;31345;51.522;10.702;2023-02-19T02:00:46;98867.50;;;8.42;100.00
45621;BME280;31345;51.522;10.702;2023-02-19T02:03:20;98860.34;;;8.45;100.00
45621;BME280;31345;51.522;10.702;2023-02-19T02:05:55;98860.59;;;8.41;100.00
45621;BME280;31345;51.522;10.702;2023-02-19T02:08:30;98861.47;;;8.41;100.00
45621;BME280;31345;51.522;10.702;2023-02-19T02:11:32;98862.84;;;8.32;100.00
45621;BME280;31345;51.522;10.702;2023-02-19T02:13:59;98853.91;;;8.37;100.00
45621;BME280;31345;51.522;10.702;2023-02-19T02:16:39;98856.25;;;8.41;100.00
45621;BME280;31345;51.522;10.702;2023-02-19T02:19:30;98857.25;;;8.39;100.00
45621;BME280;31345;51.522;10.702;2023-02-19T02:22:11;98837.72;;;8.46;100.00
45621;BME280;31345;51.522;10.702;2023-02-19T02:25:16;98821.16;;;8.32;100.00
45621;BME280;31345;51.522;10.702;2023-02-19T02:27:55;98816.50;;;8.38;100.00
45621;BME280;31345;51.522;10.702;2023-02-19T02:30:45;98815.78;;;8.36;100.00
45621;BME280;31345;51.522;10.702;2023-02-19T02:33:26;98795.38;;;8.28;100.00
45621;BME280;31345;51.522;10.702;2023-02-19T02:36:00;98786.53;;;8.30;100.00
45621;BME280;31345;51.522;10.702;2023-02-19T02:38:37;98779.94;;;8.39;100.00
45621;BME280;31345;51.522;10.702;2023-02-19T02:41:11;98767.84;;;8.38;100.00
45621;BME280;31345;51.522;10.702;2023-02-19T02:43:46;98763.94;;;8.31;100.00
45621;BME280;31345;51.522;10.702;2023-02-19T02:46:19;98778.66;;;8.32;100.00
45621;BME280;31345;51.522;10.702;2023-02-19T02:48:53;98786.72;;;8.42;100.00
45621;BME280;31345;51.522;10.702;2023-02-19T02:51:25;98772.41;;;8.34;100.00
45621;BME280;31345;51.522;10.702;2023-02-19T02:54:05;98762.38;;;8.28;100.00
45621;BME280;31345;51.522;10.702;2023-02-19T02:56:53;98749.34;;;8.28;100.00
45621;BME280;31345;51.522;10.702;2023-02-19T02:59:24;98757.16;;;8.28;100.00
45621;BME280;31345;51.522;10.702;2023-02-19T03:02:03;98766.84;;;8.26;100.00
45621;BME280;31345;51.522;10.702;2023-02-19T03:04:43;98766.91;;;8.25;100.00
45621;BME280;31345;51.522;10.702;2023-02-19T03:07:39;98744.31;;;8.25;100.00
45621;BME280;31345;51.522;10.702;2023-02-19T03:10:17;98746.66;;;8.30;100.00
45621;BME280;31345;51.522;10.702;2023-02-19T03:12:52;98756.22;;;8.44;100.00
45621;BME280;31345;51.522;10.702;2023-02-19T03:15:42;98766.94;;;8.67;100.00
45621;BME280;31345;51.522;10.702;2023-02-19T03:18:37;98761.50;;;8.84;100.00
45621;BME280;31345;51.522;10.702;2023-02-19T03:21:33;98759.84;;;8.83;100.00
45621;BME280;31345;51.522;10.702;2023-02-19T03:24:12;98761.94;;;8.91;100.00
45621;BME280;31345;51.522;10.702;2023-02-19T03:27:04;98785.56;;;8.75;100.00
45621;BME280;31345;51.522;10.702;2023-02-19T03:29:40;98787.31;;;8.75;100.00
45621;BME280;31345;51.522;10.702;2023-02-19T03:32:17;98792.91;;;8.68;100.00
45621;BME280;31345;51.522;10.702;2023-02-19T03:34:54;98784.38;;;8.66;100.00
45621;BME280;31345;51.522;10.702;2023-02-19T03:37:27;98773.50;;;8.59;100.00
45621;BME280;31345;51.522;10.702;2023-02-19T03:39:58;98789.75;;;8.63;100.00
45621;BME280;31345;51.522;10.702;2023-02-19T03:42:35;98777.97;;;8.57;100.00
45621;BME280;31345;51.522;10.702;2023-02-19T03:45:26;98777.97;;;8.57;100.00
45621;BME280;31345;51.522;10.702;2023-02-19T03:48:12;98784.19;;;8.69;100.00
45621;BME280;31345;51.522;10.702;2023-02-19T03:50:55;98794.78;;;8.66;100.00
45621;BME280;31345;51.522;10.702;2023-02-19T03:53:34;98789.84;;;8.62;100.00
45621;BME280;31345;51.522;10.702;2023-02-19T03:56:12;98783.53;;;8.66;100.00
45621;BME280;31345;51.522;10.702;2023-02-19T03:58:49;98779.84;;;8.55;100.00
45621;BME280;31345;51.522;10.702;2023-02-19T04:01:27;98783.25;;;8.56;100.00
45621;BME280;31345;51.522;10.702;2023-02-19T04:04:05;98786.72;;;8.56;100.00
45621;BME280;31345;51.522;10.702;2023-02-19T04:06:44;98781.22;;;8.61;100.00
45621;BME280;31345;51.522;10.702;2023-02-19T04:09:19;98794.53;;;8.56;100.00
45621;BME280;31345;51.522;10.702;2023-02-19T04:11:58;98796.94;;;8.59;100.00
45621;BME280;31345;51.522;10.702;2023-02-19T04:14:34;98786.81;;;8.55;100.00
45621;BME280;31345;51.522;10.702;2023-02-19T04:17:13;98800.00;;;8.66;100.00
45621;BME280;31345;51.522;10.702;2023-02-19T04:19:46;98801.66;;;8.67;100.00
45621;BME280;31345;51.522;10.702;2023-02-19T04:22:23;98796.72;;;8.77;100.00
45621;BME280;31345;51.522;10.702;2023-02-19T04:24:56;98791.66;;;8.61;100.00
45621;BME280;31345;51.522;10.702;2023-02-19T04:27:29;98793.22;;;8.64;100.00
45621;BME280;31345;51.522;10.702;2023-02-19T04:30:03;98797.78;;;8.60;100.00
45621;BME280;31345;51.522;10.702;2023-02-19T04:32:31;98808.41;;;8.57;100.00
45621;BME280;31345;51.522;10.702;2023-02-19T04:35:04;98811.38;;;8.65;100.00
45621;BME280;31345;51.522;10.702;2023-02-19T04:37:33;98813.97;;;8.65;100.00
45621;BME280;31345;51.522;10.702;2023-02-19T04:40:01;98810.25;;;8.69;100.00
45621;BME280;31345;51.522;10.702;2023-02-19T04:42:34;98817.50;;;8.64;100.00
45621;BME280;31345;51.522;10.702;2023-02-19T04:45:07;98825.97;;;8.68;100.00
45621;BME280;31345;51.522;10.702;2023-02-19T04:47:35;98828.94;;;8.62;100.00
45621;BME280;31345;51.522;10.702;2023-02-19T04:50:07;98833.53;;;8.58;100.00
45621;BME280;31345;51.522;10.702;2023-02-19T04:52:36;98836.75;;;8.62;100.00
45621;BME280;31345;51.522;10.702;2023-02-19T04:55:05;98836.75;;;8.62;100.00
45621;BME280;31345;51.522;10.702;2023-02-19T04:57:38;98847.28;;;8.60;100.00
45621;BME280;31345;51.522;10.702;2023-02-19T05:00:11;98849.44;;;8.68;100.00
45621;BME280;31345;51.522;10.702;2023-02-19T05:02:44;98848.97;;;8.61;100.00
45621;BME280;31345;51.522;10.702;2023-02-19T05:05:17;98849.97;;;8.58;100.00
45621;BME280;31345;51.522;10.702;2023-02-19T05:07:50;98863.69;;;8.62;100.00
45621;BME280;31345;51.522;10.702;2023-02-19T05:10:18;98854.06;;;8.63;100.00
45621;BME280;31345;51.522;10.702;2023-02-19T05:12:46;98861.44;;;8.70;100.00
45621;BME280;31345;51.522;10.702;2023-02-19T05:15:13;98866.75;;;8.69;100.00
45621;BME280;31345;51.522;10.702;2023-02-19T05:17:46;98858.91;;;8.54;100.00
45621;BME280;31345;51.522;10.702;2023-02-19T05:20:18;98862.38;;;8.55;100.00
45621;BME280;31345;51.522;10.702;2023-02-19T05:22:48;98863.59;;;8.64;100.00
45621;BME280;31345;51.522;10.702;2023-02-19T05:25:21;98854.47;;;8.56;100.00
45621;BME280;31345;51.522;10.702;2023-02-19T05:27:54;98859.00;;;8.53;100.00
45621;BME280;31345;51.522;10.702;2023-02-19T05:30:48;98864.03;;;8.56;100.00
45621;BME280;31345;51.522;10.702;2023-02-19T05:33:24;98860.78;;;8.52;100.00
45621;BME280;31345;51.522;10.702;2023-02-19T05:35:54;98866.28;;;8.62;100.00
45621;BME280;31345;51.522;10.702;2023-02-19T05:38:26;98860.78;;;8.52;100.00
45621;BME280;31345;51.522;10.702;2023-02-19T05:41:08;98866.19;;;8.64;100.00
45621;BME280;31345;51.522;10.702;2023-02-19T05:43:36;98863.31;;;8.54;100.00
45621;BME280;31345;51.522;10.702;2023-02-19T05:46:04;98874.19;;;8.60;100.00
45621;BME280;31345;51.522;10.702;2023-02-19T05:48:36;98879.97;;;8.51;100.00
45621;BME280;31345;51.522;10.702;2023-02-19T05:51:11;98880.63;;;8.55;100.00
45621;BME280;31345;51.522;10.702;2023-02-19T05:53:39;98887.41;;;8.57;100.00
45621;BME280;31345;51.522;10.702;2023-02-19T05:56:30;98887.78;;;8.51;100.00
45621;BME280;31345;51.522;10.702;2023-02-19T05:58:59;98895.22;;;8.57;100.00
45621;BME280;31345;51.522;10.702;2023-02-19T06:01:34;98903.97;;;8.56;100.00
45621;BME280;31345;51.522;10.702;2023-02-19T06:04:07;98915.25;;;8.57;100.00
45621;BME280;31345;51.522;10.702;2023-02-19T06:06:35;98920.63;;;8.54;100.00
45621;BME280;31345;51.522;10.702;2023-02-19T06:09:08;98920.63;;;8.54;100.00
45621;BME280;31345;51.522;10.702;2023-02-19T06:11:43;98930.59;;;8.47;100.00
45621;BME280;31345;51.522;10.702;2023-02-19T06:14:11;98931.97;;;8.38;100.00
45621;BME280;31345;51.522;10.702;2023-02-19T06:16:39;98921.16;;;8.44;100.00
45621;BME280;31345;51.522;10.702;2023-02-19T06:19:12;98926.69;;;8.40;100.00
45621;BME280;31345;51.522;10.702;2023-02-19T06:21:44;98939.69;;;8.40;100.00
45621;BME280;31345;51.522;10.702;2023-02-19T06:24:17;98944.16;;;8.38;100.00
45621;BME280;31345;51.522;10.702;2023-02-19T06:26:46;98951.41;;;8.32;100.00
45621;BME280;31345;51.522;10.702;2023-02-19T06:29:19;98957.72;;;8.28;100.00
45621;BME280;31345;51.522;10.702;2023-02-19T06:31:51;98965.28;;;8.33;100.00
45621;BME280;31345;51.522;10.702;2023-02-19T06:34:24;98957.72;;;8.28;100.00
45621;BME280;31345;51.522;10.702;2023-02-19T06:36:52;98945.72;;;8.26;100.00
45621;BME280;31345;51.522;10.702;2023-02-19T06:39:19;98952.78;;;8.24;100.00
45621;BME280;31345;51.522;10.702;2023-02-19T06:41:48;98968.41;;;8.24;100.00
45621;BME280;31345;51.522;10.702;2023-02-19T06:44:16;98964.03;;;8.24;100.00
45621;BME280;31345;51.522;10.702;2023-02-19T06:46:43;98972.69;;;8.25;100.00
45621;BME280;31345;51.522;10.702;2023-02-19T06:49:11;98976.03;;;8.27;100.00
45621;BME280;31345;51.522;10.702;2023-02-19T06:51:43;98985.63;;;8.26;100.00
45621;BME280;31345;51.522;10.702;2023-02-19T06:54:16;98980.59;;;8.23;100.00
45621;BME280;31345;51.522;10.702;2023-02-19T06:56:50;98985.63;;;8.26;100.00
45621;BME280;31345;51.522;10.702;2023-02-19T06:59:22;98994.28;;;8.27;100.00
45621;BME280;31345;51.522;10.702;2023-02-19T07:01:50;98988.97;;;8.28;100.00
45621;BME280;31345;51.522;10.702;2023-02-19T07:04:17;99001.56;;;8.36;100.00
45621;BME280;31345;51.522;10.702;2023-02-19T07:06:45;99003.59;;;8.31;100.00
45621;BME280;31345;51.522;10.702;2023-02-19T07:09:12;99006.03;;;8.34;100.00
45621;BME280;31345;51.522;10.702;2023-02-19T07:11:40;99013.94;;;8.32;100.00
45621;BME280;31345;51.522;10.702;2023-02-19T07:14:14;99029.81;;;8.28;100.00
45621;BME280;31345;51.522;10.702;2023-02-19T07:16:42;99050.66;;;8.28;100.00
45621;BME280;31345;51.522;10.702;2023-02-19T07:19:14;99052.69;;;8.06;100.00
45621;BME280;31345;51.522;10.702;2023-02-19T07:21:47;99050.97;;;7.75;100.00
45621;BME280;31345;51.522;10.702;2023-02-19T07:24:15;99052.56;;;7.61;100.00
45621;BME280;31345;51.522;10.702;2023-02-19T07:26:47;99065.97;;;7.53;100.00
45621;BME280;31345;51.522;10.702;2023-02-19T07:29:21;99071.97;;;7.38;100.00
45621;BME280;31345;51.522;10.702;2023-02-19T07:31:54;99081.84;;;7.15;100.00
45621;BME280;31345;51.522;10.702;2023-02-19T07:34:21;99092.75;;;7.22;100.00
45621;BME280;31345;51.522;10.702;2023-02-19T07:36:49;99096.81;;;7.10;100.00
45621;BME280;31345;51.522;10.702;2023-02-19T07:39:21;99099.56;;;7.07;100.00
45621;BME280;31345;51.522;10.702;2023-02-19T07:41:54;99112.19;;;7.14;100.00
45621;BME280;31345;51.522;10.702;2023-02-19T07:44:27;99122.50;;;6.98;100.00
45621;BME280;31345;51.522;10.702;2023-02-19T07:47:00;99128.78;;;7.12;100.00
45621;BME280;31345;51.522;10.702;2023-02-19T07:49:27;99126.84;;;7.15;100.00
45621;BME280;31345;51.522;10.702;2023-02-19T07:52:00;99149.25;;;7.18;100.00
45621;BME280;31345;51.522;10.702;2023-02-19T07:54:27;99151.28;;;6.95;100.00
45621;BME280;31345;51.522;10.702;2023-02-19T07:56:55;99158.59;;;7.04;100.00
45621;BME280;31345;51.522;10.702;2023-02-19T07:59:23;99154.63;;;6.97;100.00
45621;BME280;31345;51.522;10.702;2023-02-19T08:01:51;99174.88;;;7.08;100.00
45621;BME280;31345;51.522;10.702;2023-02-19T08:04:42;99177.47;;;7.08;100.00
45621;BME280;31345;51.522;10.702;2023-02-19T08:07:10;99186.13;;;7.09;100.00
45621;BME280;31345;51.522;10.702;2023-02-19T08:09:38;99187.25;;;7.21;100.00
45621;BME280;31345;51.522;10.702;2023-02-19T08:12:07;99189.84;;;7.21;100.00
45621;BME280;31345;51.522;10.702;2023-02-19T08:14:57;99205.25;;;7.08;100.00
45621;BME280;31345;51.522;10.702;2023-02-19T08:17:26;99209.31;;;7.13;100.00
45621;BME280;31345;51.522;10.702;2023-02-19T08:20:00;99218.41;;;7.04;100.00
45621;BME280;31345;51.522;10.702;2023-02-19T08:22:32;99228.34;;;6.96;100.00
45621;BME280;31345;51.522;10.702;2023-02-19T08:25:06;99234.59;;;7.10;100.00
45621;BME280;31345;51.522;10.702;2023-02-19T08:27:33;99236.91;;;7.16;100.00
45621;BME280;31345;51.522;10.702;2023-02-19T08:30:07;99252.13;;;7.24;100.00
45621;BME280;31345;51.522;10.702;2023-02-19T08:32:36;99251.59;;;7.17;100.00
45621;BME280;31345;51.522;10.702;2023-02-19T08:35:08;99263.00;;;7.14;100.00
45621;BME280;31345;51.522;10.702;2023-02-19T08:37:41;99272.59;;;7.12;100.00
45621;BME280;31345;51.522;10.702;2023-02-19T08:40:14;99267.19;;;7.17;100.00
45621;BME280;31345;51.522;10.702;2023-02-19T08:42:41;99269.34;;;7.26;100.00
45621;BME280;31345;51.522;10.702;2023-02-19T08:45:14;99272.78;;;7.27;100.00
45621;BME280;31345;51.522;10.702;2023-02-19T08:47:48;99280.97;;;7.19;100.00
45621;BME280;31345;51.522;10.702;2023-02-19T08:50:21;99280.31;;;7.33;100.00
45621;BME280;31345;51.522;10.702;2023-02-19T08:52:53;99283.19;;;7.44;100.00
45621;BME280;31345;51.522;10.702;2023-02-19T08:55:26;99289.03;;;7.50;100.00
45621;BME280;31345;51.522;10.702;2023-02-19T08:57:54;99297.69;;;7.68;100.00
45621;BME280;31345;51.522;10.702;2023-02-19T09:00:26;99294.22;;;7.50;100.00
45621;BME280;31345;51.522;10.702;2023-02-19T09:02:56;99311.84;;;7.62;100.00
45621;BME280;31345;51.522;10.702;2023-02-19T09:05:24;99312.59;;;7.82;100.00
45621;BME280;31345;51.522;10.702;2023-02-19T09:07:56;99316.97;;;7.64;100.00
45621;BME280;31345;51.522;10.702;2023-02-19T09:10:24;99315.66;;;7.37;100.00
45621;BME280;31345;51.522;10.702;2023-02-19T09:12:51;99332.53;;;7.46;100.00
45621;BME280;31345;51.522;10.702;2023-02-19T09:15:24;99345.41;;;7.31;100.00
45621;BME280;31345;51.522;10.702;2023-02-19T09:17:54;99356.81;;;7.10;100.00
45621;BME280;31345;51.522;10.702;2023-02-19T09:20:22;99353.78;;;7.00;100.00
45621;BME280;31345;51.522;10.702;2023-02-19T09:22:56;99359.81;;;6.83;100.00
45621;BME280;31345;51.522;10.702;2023-02-19T09:25:24;99357.41;;;6.78;100.00
45621;BME280;31345;51.522;10.702;2023-02-19T09:27:57;99356.69;;;6.55;100.00
45621;BME280;31345;51.522;10.702;2023-02-19T09:30:24;99359.63;;;6.66;100.00
45621;BME280;31345;51.522;10.702;2023-02-19T09:32:51;99372.75;;;6.63;100.00
45621;BME280;31345;51.522;10.702;2023-02-19T09:35:25;99380.06;;;6.55;100.00
45621;BME280;31345;51.522;10.702;2023-02-19T09:37:53;99391.06;;;6.41;100.00
45621;BME280;31345;51.522;10.702;2023-02-19T09:40:26;99391.38;;;6.73;100.00
45621;BME280;31345;51.522;10.702;2023-02-19T09:42:58;99387.84;;;6.55;100.00
45621;BME280;31345;51.522;10.702;2023-02-19T09:45:31;99395.59;;;6.76;100.00
45621;BME280;31345;51.522;10.702;2023-02-19T09:48:06;99400.34;;;6.66;100.00
45621;BME280;31345;51.522;10.702;2023-02-19T09:50:43;99412.09;;;6.56;100.00
45621;BME280;31345;51.522;10.702;2023-02-19T09:53:19;99410.00;;;6.64;100.00
45621;BME280;31345;51.522;10.702;2023-02-19T09:55:53;99426.56;;;6.61;100.00
45621;BME280;31345;51.522;10.702;2023-02-19T09:58:30;99431.63;;;6.44;100.00
45621;BME280;31345;51.522;10.702;2023-02-19T10:01:00;99425.47;;;6.46;100.00
45621;BME280;31345;51.522;10.702;2023-02-19T10:03:35;99434.56;;;6.57;100.00
45621;BME280;31345;51.522;10.702;2023-02-19T10:06:17;99441.19;;;6.43;100.00
45621;BME280;31345;51.522;10.702;2023-02-19T10:08:52;99441.97;;;6.45;100.00
45621;BME280;31345;51.522;10.702;2023-02-19T10:11:21;99434.50;;;6.37;100.00
45621;BME280;31345;51.522;10.702;2023-02-19T10:14:01;99439.19;;;6.50;100.00
45621;BME280;31345;51.522;10.702;2023-02-19T10:16:37;99443.66;;;6.46;100.00
45621;BME280;31345;51.522;10.702;2023-02-19T10:19:12;99448.59;;;6.52;100.00
45621;BME280;31345;51.522;10.702;2023-02-19T10:21:47;99449.06;;;6.42;100.00
45621;BME280;31345;51.522;10.702;2023-02-19T10:24:19;99453.59;;;6.57;100.00
45621;BME280;31345;51.522;10.702;2023-02-19T10:26:55;99462.47;;;6.72;100.00
45621;BME280;31345;51.522;10.702;2023-02-19T10:29:23;99452.38;;;6.85;100.00
45621;BME280;31345;51.522;10.702;2023-02-19T10:32:14;99476.41;;;6.90;100.00
45621;BME280;31345;51.522;10.702;2023-02-19T10:35:06;99478.56;;;6.81;100.00
45621;BME280;31345;51.522;10.702;2023-02-19T10:37:41;99489.66;;;6.84;100.00
45621;BME280;31345;51.522;10.702;2023-02-19T10:40:16;99502.13;;;6.76;100.00
45621;BME280;31345;51.522;10.702;2023-02-19T10:42:45;99518.59;;;6.76;100.00
45621;BME280;31345;51.522;10.702;2023-02-19T10:45:21;99512.75;;;6.71;100.00
45621;BME280;31345;51.522;10.702;2023-02-19T10:47:56;99523.66;;;6.79;100.00
45621;BME280;31345;51.522;10.702;2023-02-19T10:50:30;99529.88;;;6.54;100.00
45621;BME280;31345;51.522;10.702;2023-02-19T10:53:00;99540.88;;;6.61;100.00
45621;BME280;31345;51.522;10.702;2023-02-19T10:55:33;99541.25;;;6.52;100.00
45621;BME280;31345;51.522;10.702;2023-02-19T10:58:21;99544.59;;;6.56;100.00
45621;BME280;31345;51.522;10.702;2023-02-19T11:01:09;99538.22;;;6.63;100.00
45621;BME280;31345;51.522;10.702;2023-02-19T11:03:44;99531.16;;;6.86;100.00
45621;BME280;31345;51.522;10.702;2023-02-19T11:06:18;99537.16;;;6.88;100.00
45621;BME280;31345;51.522;10.702;2023-02-19T11:08:56;99551.84;;;6.89;100.00
45621;BME280;31345;51.522;10.702;2023-02-19T11:11:32;99557.50;;;6.78;100.00
45621;BME280;31345;51.522;10.702;2023-02-19T11:14:03;99565.16;;;7.02;100.00
45621;BME280;31345;51.522;10.702;2023-02-19T11:16:42;99567.13;;;6.97;100.00
45621;BME280;31345;51.522;10.702;2023-02-19T11:19:23;99567.56;;;6.86;100.00
45621;BME280;31345;51.522;10.702;2023-02-19T11:21:57;99581.66;;;6.80;99.75
45621;BME280;31345;51.522;10.702;2023-02-19T11:24:33;99577.25;;;6.82;100.00
45621;BME280;31345;51.522;10.702;2023-02-19T11:27:22;99571.59;;;6.93;100.00
45621;BME280;31345;51.522;10.702;2023-02-19T11:29:56;99564.66;;;6.94;100.00
45621;BME280;31345;51.522;10.702;2023-02-19T11:32:48;99565.59;;;7.12;100.00
45621;BME280;31345;51.522;10.702;2023-02-19T11:35:18;99565.06;;;7.24;100.00
45621;BME280;31345;51.522;10.702;2023-02-19T11:37:58;99564.78;;;7.30;100.00
45621;BME280;31345;51.522;10.702;2023-02-19T11:40:39;99570.06;;;7.29;100.00
45621;BME280;31345;51.522;10.702;2023-02-19T11:43:27;99559.53;;;7.51;100.00
45621;BME280;31345;51.522;10.702;2023-02-19T11:46:06;99565.94;;;7.44;100.00
45621;BME280;31345;51.522;10.702;2023-02-19T11:48:50;99568.28;;;7.49;100.00
45621;BME280;31345;51.522;10.702;2023-02-19T11:51:31;99580.16;;;7.56;100.00
45621;BME280;31345;51.522;10.702;2023-02-19T11:54:19;99571.22;;;7.62;100.00
45621;BME280;31345;51.522;10.702;2023-02-19T11:57:03;99575.28;;;7.87;100.00
45621;BME280;31345;51.522;10.702;2023-02-19T11:59:43;99577.16;;;8.02;100.00
45621;BME280;31345;51.522;10.702;2023-02-19T12:02:30;99572.53;;;7.90;100.00
45621;BME280;31345;51.522;10.702;2023-02-19T12:05:24;99567.56;;;8.22;100.00
45621;BME280;31345;51.522;10.702;2023-02-19T12:08:28;99558.91;;;8.21;93.23
45621;BME280;31345;51.522;10.702;2023-02-19T12:11:10;99584.03;;;8.23;100.00
45621;BME280;31345;51.522;10.702;2023-02-19T12:14:01;99576.38;;;8.19;100.00
45621;BME280;31345;51.522;10.702;2023-02-19T12:16:38;99572.47;;;8.28;100.00
45621;BME280;31345;51.522;10.702;2023-02-19T12:19:26;99582.03;;;8.28;100.00
45621;BME280;31345;51.522;10.702;2023-02-19T12:22:15;99570.47;;;8.16;100.00
45621;BME280;31345;51.522;10.702;2023-02-19T12:28:04;99579.38;;;7.73;100.00
45621;BME280;31345;51.522;10.702;2023-02-19T12:31:01;99588.31;;;7.87;100.00
45621;BME280;31345;51.522;10.702;2023-02-19T12:34:00;99581.09;;;8.11;98.22
45621;BME280;31345;51.522;10.702;2023-02-19T12:36:42;99589.53;;;8.16;100.00
45621;BME280;31345;51.522;10.702;2023-02-19T12:39:24;99590.25;;;8.20;100.00
45621;BME280;31345;51.522;10.702;2023-02-19T12:42:07;99603.13;;;8.23;100.00
45621;BME280;31345;51.522;10.702;2023-02-19T12:44:46;99600.28;;;8.28;100.00
45621;BME280;31345;51.522;10.702;2023-02-19T12:47:28;99595.47;;;8.20;100.00
45621;BME280;31345;51.522;10.702;2023-02-19T12:50:02;99587.31;;;8.08;100.00
45621;BME280;31345;51.522;10.702;2023-02-19T12:52:40;99587.00;;;8.15;100.00
45621;BME280;31345;51.522;10.702;2023-02-19T12:55:20;99589.56;;;7.97;99.65
45621;BME280;31345;51.522;10.702;2023-02-19T12:57:53;99588.94;;;7.92;99.92
45621;BME280;31345;51.522;10.702;2023-02-19T13:00:30;99600.19;;;7.92;100.00
45621;BME280;31345;51.522;10.702;2023-02-19T13:03:11;99600.97;;;7.94;100.00
45621;BME280;31345;51.522;10.702;2023-02-19T13:05:54;99610.19;;;8.02;100.00
45621;BME280;31345;51.522;10.702;2023-02-19T13:08:31;99618.91;;;7.81;100.00
45621;BME280;31345;51.522;10.702;2023-02-19T13:11:03;99610.69;;;7.91;97.98
45621;BME280;31345;51.522;10.702;2023-02-19T13:13:41;99608.28;;;8.05;94.17
45621;BME280;31345;51.522;10.702;2023-02-19T13:16:13;99613.94;;;7.96;93.85
45621;BME280;31345;51.522;10.702;2023-02-19T13:18:49;99610.81;;;8.07;90.88
45621;BME280;31345;51.522;10.702;2023-02-19T13:21:20;99613.16;;;8.31;95.92
45621;BME280;31345;51.522;10.702;2023-02-19T13:24:14;99620.63;;;8.74;94.60
45621;BME280;31345;51.522;10.702;2023-02-19T13:27:07;99619.59;;;8.96;91.99
45621;BME280;31345;51.522;10.702;2023-02-19T13:30:06;99630.13;;;9.10;90.07
45621;BME280;31345;51.522;10.702;2023-02-19T13:32:52;99632.69;;;8.94;84.88
45621;BME280;31345;51.522;10.702;2023-02-19T13:35:54;99633.06;;;9.04;83.94